sensor_id;sensor_type;location;lat;lon;timestamp;temperature;humidity
55721;DHT22;41626;53.098;6.168;2022-10-16T00:00:41;12.40;99.90
55721;DHT22;41626;53.098;6.168;2022-10-16T00:03:07;12.20;99.90
55721;DHT22;41626;53.098;6.168;2022-10-16T00:05:39;12.20;99.90
55721;DHT22;41626;53.098;6.168;2022-10-16T00:08:05;12.40;99.90
55721;DHT22;41626;53.098;6.168;2022-10-16T00:10:31;12.40;99.90
55721;DHT22;41626;53.098;6.168;2022-10-16T00:12:56;12.10;99.90
55721;DHT22;41626;53.098;6.168;2022-10-16T00:15:22;12.40;99.90
55721;DHT22;41626;53.098;6.168;2022-10-16T00:17:48;12.20;99.90
55721;DHT22;41626;53.098;6.168;2022-10-16T00:20:13;12.50;99.90
55721;DHT22;41626;53.098;6.168;2022-10-16T00:22:39;12.20;99.90
55721;DHT22;41626;53.098;6.168;2022-10-16T00:25:05;12.40;99.90
55721;DHT22;41626;53.098;6.168;2022-10-16T00:27:31;12.50;99.90
55721;DHT22;41626;53.098;6.168;2022-10-16T00:29:57;12.20;99.90
55721;DHT22;41626;53.098;6.168;2022-10-16T00:32:22;12.50;99.90
55721;DHT22;41626;53.098;6.168;2022-10-16T00:34:48;12.20;99.90
55721;DHT22;41626;53.098;6.168;2022-10-16T00:37:14;12.50;99.90
55721;DHT22;41626;53.098;6.168;2022-10-16T00:39:39;12.60;99.90
55721;DHT22;41626;53.098;6.168;2022-10-16T00:42:05;12.60;99.90
55721;DHT22;41626;53.098;6.168;2022-10-16T00:44:49;12.40;99.90
55721;DHT22;41626;53.098;6.168;2022-10-16T00:47:42;12.60;99.90
55721;DHT22;41626;53.098;6.168;2022-10-16T00:50:31;12.80;99.90
55721;DHT22;41626;53.098;6.168;2022-10-16T00:52:58;12.80;99.90
55721;DHT22;41626;53.098;6.168;2022-10-16T00:55:26;12.70;99.90
55721;DHT22;41626;53.098;6.168;2022-10-16T00:57:52;12.60;99.90
55721;DHT22;41626;53.098;6.168;2022-10-16T01:00:22;12.80;99.90
55721;DHT22;41626;53.098;6.168;2022-10-16T01:03:00;12.60;99.90
55721;DHT22;41626;53.098;6.168;2022-10-16T01:05:33;12.50;99.90
55721;DHT22;41626;53.098;6.168;2022-10-16T01:08:22;12.80;99.90
55721;DHT22;41626;53.098;6.168;2022-10-16T01:11:02;12.70;99.90
55721;DHT22;41626;53.098;6.168;2022-10-16T01:13:35;12.80;99.90
55721;DHT22;41626;53.098;6.168;2022-10-16T01:16:13;12.60;99.90
55721;DHT22;41626;53.098;6.168;2022-10-16T01:18:43;12.50;99.90
55721;DHT22;41626;53.098;6.168;2022-10-16T01:21:24;12.70;99.90
55721;DHT22;41626;53.098;6.168;2022-10-16T01:30:27;12.70;99.90
55721;DHT22;41626;53.098;6.168;2022-10-16T01:33:04;12.60;99.90
55721;DHT22;41626;53.098;6.168;2022-10-16T01:35:36;12.50;99.90
55721;DHT22;41626;53.098;6.168;2022-10-16T01:40:28;12.70;99.90
55721;DHT22;41626;53.098;6.168;2022-10-16T01:45:31;12.80;99.90
55721;DHT22;41626;53.098;6.168;2022-10-16T01:48:00;12.80;99.90
55721;DHT22;41626;53.098;6.168;2022-10-16T01:50:32;12.60;99.90
55721;DHT22;41626;53.098;6.168;2022-10-16T01:53:00;12.60;99.90
55721;DHT22;41626;53.098;6.168;2022-10-16T01:55:32;12.80;99.90
55721;DHT22;41626;53.098;6.168;2022-10-16T01:58:00;12.60;99.90
55721;DHT22;41626;53.098;6.168;2022-10-16T02:00:29;12.70;99.90
55721;DHT22;41626;53.098;6.168;2022-10-16T02:02:57;12.70;99.90
55721;DHT22;41626;53.098;6.168;2022-10-16T02:05:47;12.60;99.90
55721;DHT22;41626;53.098;6.168;2022-10-16T02:08:14;12.80;99.90
55721;DHT22;41626;53.098;6.168;2022-10-16T02:10:40;12.60;99.90
55721;DHT22;41626;53.098;6.168;2022-10-16T02:13:07;12.70;99.90
55721;DHT22;41626;53.098;6.168;2022-10-16T02:15:34;12.60;99.90
55721;DHT22;41626;53.098;6.168;2022-10-16T02:18:02;12.50;99.90
55721;DHT22;41626;53.098;6.168;2022-10-16T02:20:32;12.60;99.90
55721;DHT22;41626;53.098;6.168;2022-10-16T02:23:00;12.50;99.90
55721;DHT22;41626;53.098;6.168;2022-10-16T02:25:30;12.70;99.90
55721;DHT22;41626;53.098;6.168;2022-10-16T02:28:17;12.60;99.90
55721;DHT22;41626;53.098;6.168;2022-10-16T02:30:50;12.70;99.90
55721;DHT22;41626;53.098;6.168;2022-10-16T02:33:19;12.50;99.90
55721;DHT22;41626;53.098;6.168;2022-10-16T02:35:47;12.70;99.90
55721;DHT22;41626;53.098;6.168;2022-10-16T02:38:14;12.70;99.90
55721;DHT22;41626;53.098;6.168;2022-10-16T02:40:41;12.60;99.90
55721;DHT22;41626;53.098;6.168;2022-10-16T02:43:08;12.70;99.90
55721;DHT22;41626;53.098;6.168;2022-10-16T02:45:34;12.60;99.90
55721;DHT22;41626;53.098;6.168;2022-10-16T02:48:00;12.50;99.90
55721;DHT22;41626;53.098;6.168;2022-10-16T02:50:25;12.50;99.90
55721;DHT22;41626;53.098;6.168;2022-10-16T02:52:51;12.50;99.90
55721;DHT22;41626;53.098;6.168;2022-10-16T02:55:17;12.40;99.90
55721;DHT22;41626;53.098;6.168;2022-10-16T02:57:43;12.40;99.90
55721;DHT22;41626;53.098;6.168;2022-10-16T03:00:09;12.40;99.90
55721;DHT22;41626;53.098;6.168;2022-10-16T03:02:37;12.50;99.90
55721;DHT22;41626;53.098;6.168;2022-10-16T03:05:03;12.40;99.90
55721;DHT22;41626;53.098;6.168;2022-10-16T03:07:29;12.20;99.90
55721;DHT22;41626;53.098;6.168;2022-10-16T03:09:55;12.40;99.90
55721;DHT22;41626;53.098;6.168;2022-10-16T03:12:21;12.30;99.90
55721;DHT22;41626;53.098;6.168;2022-10-16T03:14:47;12.50;99.90
55721;DHT22;41626;53.098;6.168;2022-10-16T03:17:12;12.30;99.90
55721;DHT22;41626;53.098;6.168;2022-10-16T03:19:39;12.30;99.90
55721;DHT22;41626;53.098;6.168;2022-10-16T03:22:04;12.40;99.90
55721;DHT22;41626;53.098;6.168;2022-10-16T03:24:30;12.40;99.90
55721;DHT22;41626;53.098;6.168;2022-10-16T03:26:56;12.40;99.90
55721;DHT22;41626;53.098;6.168;2022-10-16T03:29:21;12.30;99.90
55721;DHT22;41626;53.098;6.168;2022-10-16T03:31:47;12.40;99.90
55721;DHT22;41626;53.098;6.168;2022-10-16T03:34:15;12.40;99.90
55721;DHT22;41626;53.098;6.168;2022-10-16T03:36:40;12.30;99.90
55721;DHT22;41626;53.098;6.168;2022-10-16T03:39:06;12.50;99.90
55721;DHT22;41626;53.098;6.168;2022-10-16T03:41:31;12.50;99.90
55721;DHT22;41626;53.098;6.168;2022-10-16T03:43:57;12.30;99.90
55721;DHT22;41626;53.098;6.168;2022-10-16T03:46:23;12.50;99.90
55721;DHT22;41626;53.098;6.168;2022-10-16T03:48:48;12.50;99.90
55721;DHT22;41626;53.098;6.168;2022-10-16T03:51:14;12.20;99.90
55721;DHT22;41626;53.098;6.168;2022-10-16T03:53:40;12.20;99.90
55721;DHT22;41626;53.098;6.168;2022-10-16T03:56:05;12.50;99.90
55721;DHT22;41626;53.098;6.168;2022-10-16T03:58:31;12.40;99.90
55721;DHT22;41626;53.098;6.168;2022-10-16T04:00:57;12.20;99.90
55721;DHT22;41626;53.098;6.168;2022-10-16T04:03:22;12.50;99.90
55721;DHT22;41626;53.098;6.168;2022-10-16T04:05:48;12.50;99.90
55721;DHT22;41626;53.098;6.168;2022-10-16T04:08:15;12.30;99.90
55721;DHT22;41626;53.098;6.168;2022-10-16T04:10:42;12.40;99.90
55721;DHT22;41626;53.098;6.168;2022-10-16T04:13:09;12.30;99.90
55721;DHT22;41626;53.098;6.168;2022-10-16T04:15:34;12.30;99.90
55721;DHT22;41626;53.098;6.168;2022-10-16T04:18:00;12.50;99.90
55721;DHT22;41626;53.098;6.168;2022-10-16T04:20:26;12.40;99.90
55721;DHT22;41626;53.098;6.168;2022-10-16T04:22:51;12.40;99.90
55721;DHT22;41626;53.098;6.168;2022-10-16T04:25:17;12.40;99.90
55721;DHT22;41626;53.098;6.168;2022-10-16T04:27:42;12.40;99.90
55721;DHT22;41626;53.098;6.168;2022-10-16T04:30:08;12.50;99.90
55721;DHT22;41626;53.098;6.168;2022-10-16T04:32:34;12.60;99.90
55721;DHT22;41626;53.098;6.168;2022-10-16T04:35:00;12.70;99.90
55721;DHT22;41626;53.098;6.168;2022-10-16T04:37:26;12.50;99.90
55721;DHT22;41626;53.098;6.168;2022-10-16T04:39:53;12.60;99.90
55721;DHT22;41626;53.098;6.168;2022-10-16T04:42:19;12.50;99.90
55721;DHT22;41626;53.098;6.168;2022-10-16T04:44:45;12.70;99.90
55721;DHT22;41626;53.098;6.168;2022-10-16T04:47:10;12.50;99.90
55721;DHT22;41626;53.098;6.168;2022-10-16T04:49:36;12.50;99.90
55721;DHT22;41626;53.098;6.168;2022-10-16T04:52:02;12.80;99.90
55721;DHT22;41626;53.098;6.168;2022-10-16T04:54:28;12.80;99.90
55721;DHT22;41626;53.098;6.168;2022-10-16T04:56:54;12.70;99.90
55721;DHT22;41626;53.098;6.168;2022-10-16T04:59:20;12.80;99.90
55721;DHT22;41626;53.098;6.168;2022-10-16T05:01:46;12.70;99.90
55721;DHT22;41626;53.098;6.168;2022-10-16T05:04:12;12.80;99.90
55721;DHT22;41626;53.098;6.168;2022-10-16T05:06:38;12.70;99.90
55721;DHT22;41626;53.098;6.168;2022-10-16T05:09:06;12.60;99.90
55721;DHT22;41626;53.098;6.168;2022-10-16T05:11:32;12.40;99.90
55721;DHT22;41626;53.098;6.168;2022-10-16T05:13:58;12.80;99.90
55721;DHT22;41626;53.098;6.168;2022-10-16T05:16:24;12.70;99.90
55721;DHT22;41626;53.098;6.168;2022-10-16T05:18:51;12.70;99.90
55721;DHT22;41626;53.098;6.168;2022-10-16T05:21:17;12.40;99.90
55721;DHT22;41626;53.098;6.168;2022-10-16T05:23:42;12.80;99.90
55721;DHT22;41626;53.098;6.168;2022-10-16T05:26:08;12.80;99.90
55721;DHT22;41626;53.098;6.168;2022-10-16T05:28:34;12.60;99.90
55721;DHT22;41626;53.098;6.168;2022-10-16T05:31:03;12.60;99.90
55721;DHT22;41626;53.098;6.168;2022-10-16T05:33:29;12.40;99.90
55721;DHT22;41626;53.098;6.168;2022-10-16T05:35:54;12.60;99.90
55721;DHT22;41626;53.098;6.168;2022-10-16T05:38:20;12.40;99.90
55721;DHT22;41626;53.098;6.168;2022-10-16T05:40:52;12.80;99.90
55721;DHT22;41626;53.098;6.168;2022-10-16T05:43:19;12.50;99.90
55721;DHT22;41626;53.098;6.168;2022-10-16T05:45:53;12.50;99.90
55721;DHT22;41626;53.098;6.168;2022-10-16T05:48:19;12.50;99.90
55721;DHT22;41626;53.098;6.168;2022-10-16T05:50:45;12.50;99.90
55721;DHT22;41626;53.098;6.168;2022-10-16T05:53:10;12.50;99.90
55721;DHT22;41626;53.098;6.168;2022-10-16T05:55:36;12.80;99.90
55721;DHT22;41626;53.098;6.168;2022-10-16T05:58:01;12.60;99.90
55721;DHT22;41626;53.098;6.168;2022-10-16T06:00:27;12.60;99.90
55721;DHT22;41626;53.098;6.168;2022-10-16T06:02:53;12.60;99.90
55721;DHT22;41626;53.098;6.168;2022-10-16T06:05:19;12.90;99.90
55721;DHT22;41626;53.098;6.168;2022-10-16T06:07:44;12.60;99.90
55721;DHT22;41626;53.098;6.168;2022-10-16T06:10:10;12.80;99.90
55721;DHT22;41626;53.098;6.168;2022-10-16T06:12:36;12.50;99.90
55721;DHT22;41626;53.098;6.168;2022-10-16T06:15:01;12.40;99.90
55721;DHT22;41626;53.098;6.168;2022-10-16T06:17:27;12.80;99.90
55721;DHT22;41626;53.098;6.168;2022-10-16T06:19:52;12.80;99.90
55721;DHT22;41626;53.098;6.168;2022-10-16T06:22:18;12.70;99.90
55721;DHT22;41626;53.098;6.168;2022-10-16T06:24:44;12.40;99.90
55721;DHT22;41626;53.098;6.168;2022-10-16T06:27:09;12.50;99.90
55721;DHT22;41626;53.098;6.168;2022-10-16T06:29:35;12.50;99.90
55721;DHT22;41626;53.098;6.168;2022-10-16T06:32:01;12.50;99.90
55721;DHT22;41626;53.098;6.168;2022-10-16T06:34:26;12.50;99.90
55721;DHT22;41626;53.098;6.168;2022-10-16T06:36:52;12.80;99.90
55721;DHT22;41626;53.098;6.168;2022-10-16T06:39:17;12.90;99.90
55721;DHT22;41626;53.098;6.168;2022-10-16T06:41:43;12.70;99.90
55721;DHT22;41626;53.098;6.168;2022-10-16T06:44:09;12.70;99.90
55721;DHT22;41626;53.098;6.168;2022-10-16T06:46:34;12.90;99.90
55721;DHT22;41626;53.098;6.168;2022-10-16T06:49:00;12.70;99.90
55721;DHT22;41626;53.098;6.168;2022-10-16T06:51:25;12.60;99.90
55721;DHT22;41626;53.098;6.168;2022-10-16T06:53:53;12.80;99.90
55721;DHT22;41626;53.098;6.168;2022-10-16T06:58:45;12.90;99.90
55721;DHT22;41626;53.098;6.168;2022-10-16T07:01:12;12.80;99.90
55721;DHT22;41626;53.098;6.168;2022-10-16T07:03:42;12.90;99.90
55721;DHT22;41626;53.098;6.168;2022-10-16T07:06:10;13.10;99.90
55721;DHT22;41626;53.098;6.168;2022-10-16T07:08:38;13.00;99.90
55721;DHT22;41626;53.098;6.168;2022-10-16T07:11:12;12.70;99.90
55721;DHT22;41626;53.098;6.168;2022-10-16T07:13:40;13.10;99.90
55721;DHT22;41626;53.098;6.168;2022-10-16T07:16:07;13.00;99.90
55721;DHT22;41626;53.098;6.168;2022-10-16T07:18:33;13.00;99.90
55721;DHT22;41626;53.098;6.168;2022-10-16T07:21:10;12.60;99.90
55721;DHT22;41626;53.098;6.168;2022-10-16T07:23:37;13.00;99.90
55721;DHT22;41626;53.098;6.168;2022-10-16T07:26:03;12.90;99.90
55721;DHT22;41626;53.098;6.168;2022-10-16T07:28:31;12.80;99.90
55721;DHT22;41626;53.098;6.168;2022-10-16T07:31:01;12.60;99.90
55721;DHT22;41626;53.098;6.168;2022-10-16T07:33:28;13.00;99.90
55721;DHT22;41626;53.098;6.168;2022-10-16T07:35:54;13.00;99.90
55721;DHT22;41626;53.098;6.168;2022-10-16T07:38:21;12.50;99.90
55721;DHT22;41626;53.098;6.168;2022-10-16T07:40:47;13.00;99.90
55721;DHT22;41626;53.098;6.168;2022-10-16T07:43:14;12.50;99.90
55721;DHT22;41626;53.098;6.168;2022-10-16T07:45:48;12.60;99.90
55721;DHT22;41626;53.098;6.168;2022-10-16T07:48:15;13.00;99.90
55721;DHT22;41626;53.098;6.168;2022-10-16T07:50:41;13.10;99.90
55721;DHT22;41626;53.098;6.168;2022-10-16T07:53:07;12.80;99.90
55721;DHT22;41626;53.098;6.168;2022-10-16T07:55:33;13.10;99.90
55721;DHT22;41626;53.098;6.168;2022-10-16T07:57:58;13.30;99.90
55721;DHT22;41626;53.098;6.168;2022-10-16T08:00:24;12.90;99.90
55721;DHT22;41626;53.098;6.168;2022-10-16T08:02:50;13.00;99.90
55721;DHT22;41626;53.098;6.168;2022-10-16T08:05:15;13.20;99.90
55721;DHT22;41626;53.098;6.168;2022-10-16T08:07:41;13.50;99.90
55721;DHT22;41626;53.098;6.168;2022-10-16T08:10:19;13.50;99.90
55721;DHT22;41626;53.098;6.168;2022-10-16T08:12:45;13.80;99.90
55721;DHT22;41626;53.098;6.168;2022-10-16T08:15:11;13.80;99.90
55721;DHT22;41626;53.098;6.168;2022-10-16T08:17:37;13.50;99.90
55721;DHT22;41626;53.098;6.168;2022-10-16T08:20:03;14.10;99.90
55721;DHT22;41626;53.098;6.168;2022-10-16T08:22:29;14.10;99.90
55721;DHT22;41626;53.098;6.168;2022-10-16T08:24:55;13.80;99.90
55721;DHT22;41626;53.098;6.168;2022-10-16T08:27:20;14.00;99.90
55721;DHT22;41626;53.098;6.168;2022-10-16T08:29:48;14.00;99.90
55721;DHT22;41626;53.098;6.168;2022-10-16T08:32:13;14.10;99.90
55721;DHT22;41626;53.098;6.168;2022-10-16T08:34:39;14.30;99.90
55721;DHT22;41626;53.098;6.168;2022-10-16T08:37:04;14.40;99.90
55721;DHT22;41626;53.098;6.168;2022-10-16T08:39:30;14.60;99.90
55721;DHT22;41626;53.098;6.168;2022-10-16T08:49:55;14.80;99.90
55721;DHT22;41626;53.098;6.168;2022-10-16T08:52:22;14.80;99.90
55721;DHT22;41626;53.098;6.168;2022-10-16T08:54:51;14.90;99.90
55721;DHT22;41626;53.098;6.168;2022-10-16T08:57:21;14.70;99.90
55721;DHT22;41626;53.098;6.168;2022-10-16T08:59:47;14.70;99.90
55721;DHT22;41626;53.098;6.168;2022-10-16T09:07:43;15.00;99.90
55721;DHT22;41626;53.098;6.168;2022-10-16T09:10:51;14.70;99.90
55721;DHT22;41626;53.098;6.168;2022-10-16T09:16:42;15.10;99.90
55721;DHT22;41626;53.098;6.168;2022-10-16T09:21:41;14.90;99.90
55721;DHT22;41626;53.098;6.168;2022-10-16T09:24:19;14.80;99.90
55721;DHT22;41626;53.098;6.168;2022-10-16T09:26:46;14.70;99.90
55721;DHT22;41626;53.098;6.168;2022-10-16T09:29:14;15.00;99.90
55721;DHT22;41626;53.098;6.168;2022-10-16T09:31:40;15.00;99.90
55721;DHT22;41626;53.098;6.168;2022-10-16T09:34:08;15.00;99.90
55721;DHT22;41626;53.098;6.168;2022-10-16T09:36:45;15.20;99.90
55721;DHT22;41626;53.098;6.168;2022-10-16T09:39:11;15.10;99.90
55721;DHT22;41626;53.098;6.168;2022-10-16T09:41:39;15.20;99.90
55721;DHT22;41626;53.098;6.168;2022-10-16T09:44:28;15.30;99.90
55721;DHT22;41626;53.098;6.168;2022-10-16T09:47:16;15.30;99.90
55721;DHT22;41626;53.098;6.168;2022-10-16T09:49:54;15.10;99.90
55721;DHT22;41626;53.098;6.168;2022-10-16T09:52:22;15.30;99.90
55721;DHT22;41626;53.098;6.168;2022-10-16T09:54:53;15.40;99.90
55721;DHT22;41626;53.098;6.168;2022-10-16T09:57:20;15.40;99.90
55721;DHT22;41626;53.098;6.168;2022-10-16T09:59:50;15.60;99.90
55721;DHT22;41626;53.098;6.168;2022-10-16T10:02:19;15.50;99.90
55721;DHT22;41626;53.098;6.168;2022-10-16T10:04:53;15.60;99.90
55721;DHT22;41626;53.098;6.168;2022-10-16T10:07:26;15.50;99.90
55721;DHT22;41626;53.098;6.168;2022-10-16T10:09:54;15.50;99.90
55721;DHT22;41626;53.098;6.168;2022-10-16T10:12:23;15.60;99.90
55721;DHT22;41626;53.098;6.168;2022-10-16T10:14:51;15.70;99.90
55721;DHT22;41626;53.098;6.168;2022-10-16T10:17:22;15.80;99.90
55721;DHT22;41626;53.098;6.168;2022-10-16T10:19:55;15.80;99.90
55721;DHT22;41626;53.098;6.168;2022-10-16T10:22:39;15.70;99.90
55721;DHT22;41626;53.098;6.168;2022-10-16T10:27:56;15.90;99.90
55721;DHT22;41626;53.098;6.168;2022-10-16T10:30:42;15.80;99.90
55721;DHT22;41626;53.098;6.168;2022-10-16T10:38:54;16.00;99.90
55721;DHT22;41626;53.098;6.168;2022-10-16T10:49:50;15.90;99.90
55721;DHT22;41626;53.098;6.168;2022-10-16T10:52:41;15.90;99.90
55721;DHT22;41626;53.098;6.168;2022-10-16T11:00:57;16.10;99.90
55721;DHT22;41626;53.098;6.168;2022-10-16T11:06:28;15.80;99.90
55721;DHT22;41626;53.098;6.168;2022-10-16T11:12:07;16.00;99.90
55721;DHT22;41626;53.098;6.168;2022-10-16T11:17:15;16.20;99.90
55721;DHT22;41626;53.098;6.168;2022-10-16T11:22:58;16.40;99.90
55721;DHT22;41626;53.098;6.168;2022-10-16T11:25:30;16.70;99.90
55721;DHT22;41626;53.098;6.168;2022-10-16T11:28:13;16.70;99.90
55721;DHT22;41626;53.098;6.168;2022-10-16T11:33:25;16.90;99.90
55721;DHT22;41626;53.098;6.168;2022-10-16T11:35:55;16.90;99.90
55721;DHT22;41626;53.098;6.168;2022-10-16T11:40:58;16.80;99.90
55721;DHT22;41626;53.098;6.168;2022-10-16T11:43:32;16.70;99.90
55721;DHT22;41626;53.098;6.168;2022-10-16T11:46:08;16.40;99.90
55721;DHT22;41626;53.098;6.168;2022-10-16T11:54:26;16.00;99.90
55721;DHT22;41626;53.098;6.168;2022-10-16T11:56:54;15.90;99.90
55721;DHT22;41626;53.098;6.168;2022-10-16T12:01:56;15.80;99.90
55721;DHT22;41626;53.098;6.168;2022-10-16T12:04:36;15.90;99.90
55721;DHT22;41626;53.098;6.168;2022-10-16T12:07:24;16.30;99.90
55721;DHT22;41626;53.098;6.168;2022-10-16T12:09:52;16.30;99.90
55721;DHT22;41626;53.098;6.168;2022-10-16T12:15:17;16.50;99.90
55721;DHT22;41626;53.098;6.168;2022-10-16T12:17:44;16.50;99.90
55721;DHT22;41626;53.098;6.168;2022-10-16T12:22:47;16.60;99.90
55721;DHT22;41626;53.098;6.168;2022-10-16T12:25:22;16.60;99.90
55721;DHT22;41626;53.098;6.168;2022-10-16T12:30:26;16.30;99.90
55721;DHT22;41626;53.098;6.168;2022-10-16T12:33:06;16.10;99.90
55721;DHT22;41626;53.098;6.168;2022-10-16T12:35:45;15.90;99.90
55721;DHT22;41626;53.098;6.168;2022-10-16T12:38:20;15.70;99.90
55721;DHT22;41626;53.098;6.168;2022-10-16T12:41:01;15.60;99.90
55721;DHT22;41626;53.098;6.168;2022-10-16T12:43:41;15.60;99.90
55721;DHT22;41626;53.098;6.168;2022-10-16T12:48:40;15.50;99.90
55721;DHT22;41626;53.098;6.168;2022-10-16T12:54:15;15.80;99.90
55721;DHT22;41626;53.098;6.168;2022-10-16T13:00:24;16.00;99.90
55721;DHT22;41626;53.098;6.168;2022-10-16T13:08:46;15.80;99.90
55721;DHT22;41626;53.098;6.168;2022-10-16T13:20:12;16.10;99.90
55721;DHT22;41626;53.098;6.168;2022-10-16T13:30:28;15.90;99.90
55721;DHT22;41626;53.098;6.168;2022-10-16T13:33:18;15.90;99.90
55721;DHT22;41626;53.098;6.168;2022-10-16T13:35:49;15.90;99.90
55721;DHT22;41626;53.098;6.168;2022-10-16T13:38:18;15.90;99.90
55721;DHT22;41626;53.098;6.168;2022-10-16T13:40:59;16.00;99.90
55721;DHT22;41626;53.098;6.168;2022-10-16T13:43:39;16.10;99.90
55721;DHT22;41626;53.098;6.168;2022-10-16T13:46:18;16.20;99.90
55721;DHT22;41626;53.098;6.168;2022-10-16T13:48:44;16.50;99.90
55721;DHT22;41626;53.098;6.168;2022-10-16T13:51:18;16.50;99.90
55721;DHT22;41626;53.098;6.168;2022-10-16T13:53:45;16.60;99.90
55721;DHT22;41626;53.098;6.168;2022-10-16T13:56:13;16.60;99.90
55721;DHT22;41626;53.098;6.168;2022-10-16T13:58:40;16.60;99.90
55721;DHT22;41626;53.098;6.168;2022-10-16T14:01:18;16.80;99.90
55721;DHT22;41626;53.098;6.168;2022-10-16T14:03:45;16.80;99.90
55721;DHT22;41626;53.098;6.168;2022-10-16T14:06:14;16.80;99.90
55721;DHT22;41626;53.098;6.168;2022-10-16T14:09:02;16.70;99.90
55721;DHT22;41626;53.098;6.168;2022-10-16T14:11:30;16.70;99.90
55721;DHT22;41626;53.098;6.168;2022-10-16T14:13:56;16.60;99.90
55721;DHT22;41626;53.098;6.168;2022-10-16T14:16:27;16.60;99.90
55721;DHT22;41626;53.098;6.168;2022-10-16T14:19:04;16.70;99.90
55721;DHT22;41626;53.098;6.168;2022-10-16T14:21:33;16.60;99.90
55721;DHT22;41626;53.098;6.168;2022-10-16T14:23:59;16.40;99.90
55721;DHT22;41626;53.098;6.168;2022-10-16T14:26:42;16.20;99.90
55721;DHT22;41626;53.098;6.168;2022-10-16T14:29:29;16.10;99.90
55721;DHT22;41626;53.098;6.168;2022-10-16T14:32:05;16.10;99.90
55721;DHT22;41626;53.098;6.168;2022-10-16T14:34:38;16.10;99.90
55721;DHT22;41626;53.098;6.168;2022-10-16T14:39:32;15.90;99.90
55721;DHT22;41626;53.098;6.168;2022-10-16T14:41:58;15.80;99.90
55721;DHT22;41626;53.098;6.168;2022-10-16T14:44:31;15.80;99.90
55721;DHT22;41626;53.098;6.168;2022-10-16T14:46:57;15.80;99.90
55721;DHT22;41626;53.098;6.168;2022-10-16T14:49:25;15.70;99.90
55721;DHT22;41626;53.098;6.168;2022-10-16T14:51:51;15.60;99.90
55721;DHT22;41626;53.098;6.168;2022-10-16T14:54:18;15.60;99.90
55721;DHT22;41626;53.098;6.168;2022-10-16T14:57:03;15.70;99.90
55721;DHT22;41626;53.098;6.168;2022-10-16T14:59:35;15.70;99.90
55721;DHT22;41626;53.098;6.168;2022-10-16T15:02:16;15.60;99.90
55721;DHT22;41626;53.098;6.168;2022-10-16T15:04:43;15.60;99.90
55721;DHT22;41626;53.098;6.168;2022-10-16T15:07:09;15.60;99.90
55721;DHT22;41626;53.098;6.168;2022-10-16T15:09:34;15.50;99.90
55721;DHT22;41626;53.098;6.168;2022-10-16T15:12:00;15.50;99.90
55721;DHT22;41626;53.098;6.168;2022-10-16T15:14:26;15.40;99.90
55721;DHT22;41626;53.098;6.168;2022-10-16T15:16:51;15.50;99.90
55721;DHT22;41626;53.098;6.168;2022-10-16T15:19:17;15.40;99.90
55721;DHT22;41626;53.098;6.168;2022-10-16T15:21:42;15.40;99.90
55721;DHT22;41626;53.098;6.168;2022-10-16T15:24:12;15.40;99.90
55721;DHT22;41626;53.098;6.168;2022-10-16T15:26:38;15.30;99.90
55721;DHT22;41626;53.098;6.168;2022-10-16T15:29:04;15.30;99.90
55721;DHT22;41626;53.098;6.168;2022-10-16T15:31:30;15.30;99.90
55721;DHT22;41626;53.098;6.168;2022-10-16T15:33:56;15.30;99.90
55721;DHT22;41626;53.098;6.168;2022-10-16T15:36:38;15.30;99.90
55721;DHT22;41626;53.098;6.168;2022-10-16T15:39:14;15.20;99.90
55721;DHT22;41626;53.098;6.168;2022-10-16T15:41:40;15.10;99.90
55721;DHT22;41626;53.098;6.168;2022-10-16T15:44:07;15.10;99.90
55721;DHT22;41626;53.098;6.168;2022-10-16T15:46:33;15.10;99.90
55721;DHT22;41626;53.098;6.168;2022-10-16T15:49:00;15.10;99.90
55721;DHT22;41626;53.098;6.168;2022-10-16T15:51:26;15.00;99.90
55721;DHT22;41626;53.098;6.168;2022-10-16T15:53:58;14.80;99.90
55721;DHT22;41626;53.098;6.168;2022-10-16T15:56:24;14.90;99.90
55721;DHT22;41626;53.098;6.168;2022-10-16T15:58:51;14.80;99.90
55721;DHT22;41626;53.098;6.168;2022-10-16T16:01:17;14.70;99.90
55721;DHT22;41626;53.098;6.168;2022-10-16T16:03:43;14.70;99.90
55721;DHT22;41626;53.098;6.168;2022-10-16T16:06:12;14.70;99.90
55721;DHT22;41626;53.098;6.168;2022-10-16T16:08:38;14.50;99.90
55721;DHT22;41626;53.098;6.168;2022-10-16T16:11:09;14.60;99.90
55721;DHT22;41626;53.098;6.168;2022-10-16T16:13:35;14.60;99.90
55721;DHT22;41626;53.098;6.168;2022-10-16T16:16:12;14.60;99.90
55721;DHT22;41626;53.098;6.168;2022-10-16T16:18:38;14.40;99.90
55721;DHT22;41626;53.098;6.168;2022-10-16T16:21:05;14.40;99.90
55721;DHT22;41626;53.098;6.168;2022-10-16T16:23:31;14.40;99.90
55721;DHT22;41626;53.098;6.168;2022-10-16T16:26:04;14.30;99.90
55721;DHT22;41626;53.098;6.168;2022-10-16T16:28:29;14.30;99.90
55721;DHT22;41626;53.098;6.168;2022-10-16T16:30:55;14.20;99.90
55721;DHT22;41626;53.098;6.168;2022-10-16T16:33:21;14.10;99.90
55721;DHT22;41626;53.098;6.168;2022-10-16T16:35:47;14.10;99.90
55721;DHT22;41626;53.098;6.168;2022-10-16T16:38:12;14.10;99.90
55721;DHT22;41626;53.098;6.168;2022-10-16T16:40:38;14.00;99.90
55721;DHT22;41626;53.098;6.168;2022-10-16T16:43:04;14.00;99.90
55721;DHT22;41626;53.098;6.168;2022-10-16T16:45:29;14.10;99.90
55721;DHT22;41626;53.098;6.168;2022-10-16T16:47:55;14.10;99.90
55721;DHT22;41626;53.098;6.168;2022-10-16T16:50:20;13.90;99.90
55721;DHT22;41626;53.098;6.168;2022-10-16T16:52:46;13.80;99.90
55721;DHT22;41626;53.098;6.168;2022-10-16T16:55:12;13.80;99.90
55721;DHT22;41626;53.098;6.168;2022-10-16T16:57:37;13.80;99.90
55721;DHT22;41626;53.098;6.168;2022-10-16T17:00:04;13.70;99.90
55721;DHT22;41626;53.098;6.168;2022-10-16T17:02:30;13.50;99.90
55721;DHT22;41626;53.098;6.168;2022-10-16T17:04:55;13.50;99.90
55721;DHT22;41626;53.098;6.168;2022-10-16T17:07:22;13.60;99.90
55721;DHT22;41626;53.098;6.168;2022-10-16T17:09:50;13.40;99.90
55721;DHT22;41626;53.098;6.168;2022-10-16T17:12:16;13.30;99.90
55721;DHT22;41626;53.098;6.168;2022-10-16T17:14:41;13.40;99.90
55721;DHT22;41626;53.098;6.168;2022-10-16T17:17:07;13.30;99.90
55721;DHT22;41626;53.098;6.168;2022-10-16T17:19:33;13.30;99.90
55721;DHT22;41626;53.098;6.168;2022-10-16T17:21:59;13.30;99.90
55721;DHT22;41626;53.098;6.168;2022-10-16T17:24:25;13.00;99.90
55721;DHT22;41626;53.098;6.168;2022-10-16T17:26:51;13.00;99.90
55721;DHT22;41626;53.098;6.168;2022-10-16T17:29:17;12.90;99.90
55721;DHT22;41626;53.098;6.168;2022-10-16T17:31:43;12.60;99.90
55721;DHT22;41626;53.098;6.168;2022-10-16T17:34:10;12.40;99.90
55721;DHT22;41626;53.098;6.168;2022-10-16T17:36:38;12.40;99.90
55721;DHT22;41626;53.098;6.168;2022-10-16T17:39:11;12.50;99.90
55721;DHT22;41626;53.098;6.168;2022-10-16T17:41:37;12.30;99.90
55721;DHT22;41626;53.098;6.168;2022-10-16T17:44:03;12.20;99.90